Portada
METAR-TAF:

METAR-TAF

Aeropuertos :

Aeropuerto Internacional de Bujumbura

Buyumbura, Burundi

latitud: 03-19S, longitud: 029-19E, altitud: 782 m

METAR: falta

Hora: 14:30 (12:30 UTC)

Pronóstico

El informe se hizo hace 1 hora y 30 minutos, a las 11:00 UTC
Pronóstico válido del 25 a las 12 UTC al 26 a las 18 UTC
Viento 6 kt del sur con ráfagas de 16 kt
Visibilidad 10 km o más
Escasas nubes a una altura de 3000 ft

TAF: HBBA 251100Z 2512/2618 18008G20KT 9999 FEW030 BECMG2519/2521 36004KT BECMG2608/2610 18006G16KT

Observaciones y pronósticos meteorológicos de más de 4000 aeropuertos (mensajes METAR y TAF).

Los puntos amarillos y rojos representan las estaciones disponibles.

Ponga el ratón en el punto deseado para ver el nombre de la estación.

Haga clic para ver las observaciones y los pronósticos meteorológicos.

Para cambiar el mapa : haga clic en los botones verdes con una cruz de color negro para hacer un zoom, en el botón verde con un guión para alejar o en las flechas verdes para mapas adyacentes.


METAR-TAF: